Latest Coastal Weather Observations for Flinders Island Airport

IDT60701

Issued at 7:03 am EDT Saturday 25 March 2017 (issued every 10 minutes, with the page automatically refreshed every 10 minutes)

About coastal observations | Map of coastal stations | Coastal observations for TAS | Marine services | Other Formats
Station Details ID: 099005 Name: FLINDERS ISLAND AIRPORT Lat: -40.09 Lon: 148.00 Height: 9.0 m
Data from the previous 72 hours. | See also: Recent months at Flinders Island Airport
Date/Time
EDT
Temp
°C
Wind Pressure Rain since
9am
mm
Weather Cloud Vis
km
Sea
Height
m
Swell
Dir  Spd
kts
Gust
kts
hPa Trend Height
m
Period
s
Dir
25/06:30am 18.1 ENE 11 14 1014.1 - 0.0 - Cloudy 10 - - - -
25/06:00am 18.0 ENE 12 16 1014.4 - 0.0 - Cloudy 10 - - - -
25/05:30am 17.9 ENE 12 16 1014.8 - 0.0 - Cloudy 10 - - - -
25/05:00am 17.8 ENE 10 16 1015.0 - 0.0 - Cloudy 10 - - - -
25/04:30am 17.5 ENE 10 16 1015.2 - 0.0 - Cloudy 10 - - - -
25/04:00am 17.4 NE 9 12 1015.7 - 0.0 - Cloudy 10 - - - -
25/03:30am 17.4 ENE 7 10 1016.3 - 0.0 - Cloudy 10 - - - -
25/03:00am 17.3 NE 9 13 1016.7 - 0.0 - Cloudy 10 - - - -
25/02:30am 17.4 ENE 9 14 1016.7 - 0.0 - Cloudy 10 - - - -
25/02:00am 17.3 ENE 12 17 1017.0 - 0.0 - Cloudy 10 - - - -
25/01:30am 17.2 ENE 10 15 1017.6 - 0.0 - Partly cloudy 10 - - - -
25/01:00am 16.8 ENE 12 16 1017.7 - 0.0 - Partly cloudy 10 - - - -
25/12:30am 16.5 ENE 9 13 1018.4 - 0.0 - Partly cloudy 10 - - - -
25/12:00am 16.1 NE 9 12 1018.9 - 0.0 - Cloudy 10 - - - -
 
Date/Time
EDT
Temp
°C
Wind Pressure Rain since
9am
mm
Weather Cloud Vis
km
Sea
Height
m
Swell
Dir  Spd
kts
Gust
kts
hPa Trend Height
m
Period
s
Dir
24/11:30pm 16.5 E 9 13 1019.0 - 0.0 - Partly cloudy 10 - - - -
24/11:00pm 16.1 E 7 9 1019.6 - 0.0 - Partly cloudy 10 - - - -
24/10:30pm 16.0 E 6 7 1019.5 - 0.0 - - 10 - - - -
24/10:00pm 16.0 E 7 11 1019.9 - 0.0 - Partly cloudy 10 - - - -
24/09:30pm 16.2 ENE 8 13 1020.0 - 0.0 - Partly cloudy 10 - - - -
24/09:00pm 16.0 ENE 5 7 1020.5 - 0.0 - Cloudy 10 - - - -
24/08:30pm 16.6 ENE 8 11 1020.2 - 0.0 - Cloudy 10 - - - -
24/08:00pm 16.7 ENE 7 13 1020.1 - 0.0 - Cloudy 10 - - - -
24/07:30pm 16.9 E 5 9 1020.6 - 0.0 - Cloudy 10 - - - -
24/07:00pm 17.0 E 7 10 1020.1 - 0.0 - Cloudy 10 - - - -
24/06:30pm 16.9 E 8 13 1019.7 - 0.0 - Partly cloudy 10 - - - -
24/06:00pm 17.4 ENE 10 15 1019.9 - 0.0 - - 10 - - - -
24/05:30pm 18.6 E 9 14 1020.2 - 0.0 - Partly cloudy 10 - - - -
24/05:00pm 18.4 E 11 16 1020.4 - 0.0 - Partly cloudy 10 - - - -
24/04:30pm 19.1 E 11 17 1020.6 - 0.0 - Partly cloudy 10 - - - -
24/04:00pm 18.9 E 10 15 1021.2 - 0.0 - Partly cloudy 10 - - - -
24/03:30pm 19.5 ENE 13 17 1021.2 - 0.0 - Partly cloudy 10 - - - -
24/03:00pm 19.4 E 10 16 1021.5 - 0.0 - Partly cloudy 10 - - - -
24/02:30pm 18.9 E 9 15 1021.8 - 0.0 - Partly cloudy 10 - - - -
24/02:00pm 19.1 E 10 16 1021.9 - 0.0 - Cloudy 10 - - - -
24/01:30pm 19.1 E 12 18 1022.4 - 0.0 - Partly cloudy 10 - - - -
24/01:00pm 19.0 E 13 19 1022.6 - 0.0 - Partly cloudy 10 - - - -
24/12:30pm 19.6 E 11 16 1022.7 - 0.0 - Partly cloudy 10 - - - -
24/12:00pm 19.7 ESE 7 14 1023.3 - 0.0 - Mostly cloudy 10 - - - -
24/11:30am 19.7 E 11 14 1023.7 - 0.0 - Partly cloudy 10 - - - -
24/11:00am 18.9 E 9 14 1023.9 - 0.0 - Partly cloudy 10 - - - -
24/10:30am 19.0 ESE 10 16 1023.8 - 0.0 - Cloudy 10 - - - -
24/10:00am 18.1 ESE 9 13 1023.7 - 0.0 - Cloudy 10 - - - -
24/09:30am 17.7 ESE 6 9 1023.3 - 0.0 - Cloudy 10 - - - -
24/09:00am 16.3 SE 5 7 1023.4 - 0.0 - Cloudy 10 - - - -
24/08:30am 15.9 ESE 5 8 1023.1 - 0.0 - Partly cloudy 10 - - - -
24/08:00am 15.4 ESE 6 8 1022.9 - 0.0 - Cloudy 10 - - - -
24/07:30am 11.8 E 5 7 1022.6 - 0.0 - Partly cloudy 10 - - - -
24/07:00am 11.2 ENE 6 7 1022.6 - 0.0 - Partly cloudy 10 - - - -
24/06:30am 9.5 ENE 6 7 1022.9 - 0.0 - Partly cloudy 10 - - - -
24/06:00am 7.8 ENE 5 7 1023.1 - 0.0 - - 10 - - - -
24/05:30am 8.5 CALM 0 0 1023.0 - 0.0 - - 10 - - - -
24/05:00am 8.9 CALM 0 0 1022.8 - 0.0 - - 10 - - - -
24/04:30am 9.5 ENE 2 4 1022.7 - 0.0 - - 10 - - - -
24/04:00am 10.8 CALM 0 0 1022.8 - 0.0 - - 10 - - - -
24/03:30am 11.1 CALM 0 4 1022.4 - 0.0 - - 10 - - - -
24/03:00am 12.5 NE 4 5 1022.6 - 0.0 - - 10 - - - -
24/02:30am 14.0 CALM 0 0 1023.1 - 0.0 - - 10 - - - -
24/02:00am 15.1 ESE 7 11 1023.1 - 0.0 - - 10 - - - -
24/01:30am 15.4 E 8 11 1022.9 - 0.0 - - 10 - - - -
24/01:00am 15.1 E 9 15 1022.9 - 0.0 - - 10 - - - -
24/12:30am 15.2 E 7 13 1023.4 - 0.0 - - 10 - - - -
24/12:00am 15.1 E 9 12 1024.1 - 0.0 - - 10 - - - -
 
Date/Time
EDT
Temp
°C
Wind Pressure Rain since
9am
mm
Weather Cloud Vis
km
Sea
Height
m
Swell
Dir  Spd
kts
Gust
kts
hPa Trend Height
m
Period
s
Dir
23/11:30pm 15.0 E 5 8 1024.2 - 0.0 - - 10 - - - -
23/11:00pm 15.0 E 3 6 1024.1 - 0.0 - - 10 - - - -
23/10:30pm 14.9 NE 5 6 1024.4 - 0.0 - Partly cloudy 10 - - - -
23/10:00pm 14.8 ENE 4 7 1024.7 - 0.0 - Cloudy 10 - - - -
23/09:30pm 15.8 SE 4 6 1024.6 - 0.0 - Cloudy 10 - - - -
23/09:00pm 15.0 S 5 10 1024.2 - 0.0 - Partly cloudy 10 - - - -
23/08:30pm 14.9 ESE 5 9 1023.7 - 0.0 - - 10 - - - -
23/08:00pm 15.4 ESE 8 12 1023.4 - 0.0 - Partly cloudy 10 - - - -
23/07:30pm 15.8 ESE 6 9 1023.3 - 0.0 - Partly cloudy 10 - - - -
23/07:00pm 16.3 SE 8 15 1023.0 - 0.0 - - 10 - - - -
23/06:30pm 17.4 ESE 10 17 1022.7 - 0.0 - - 10 - - - -
23/06:00pm 18.2 ESE 9 17 1022.6 - 0.0 - - 10 - - - -
23/05:30pm 18.7 ESE 9 16 1022.7 - 0.0 - Partly cloudy 10 - - - -
23/05:00pm 18.4 SE 8 15 1022.7 - 0.0 - Partly cloudy 10 - - - -
23/04:30pm 18.5 SE 9 14 1022.7 - 0.0 - Partly cloudy 10 - - - -
23/04:00pm 18.8 SE 9 14 1022.7 - 0.0 - Partly cloudy 10 - - - -
23/03:30pm 18.8 SE 10 20 1022.7 - 0.0 - Partly cloudy 10 - - - -
23/03:00pm 19.3 ESE 10 17 1022.8 - 0.0 - Cloudy 10 - - - -
23/02:30pm 19.9 ESE 12 19 1022.9 - 0.0 - Partly cloudy 10 - - - -
23/02:00pm 19.8 ESE 12 19 1023.0 - 0.0 - Cloudy 10 - - - -
23/01:30pm 19.3 ESE 13 19 1023.3 - 0.0 - Partly cloudy 10 - - - -
23/01:00pm 19.3 E 11 18 1023.5 - 0.0 - Partly cloudy 10 - - - -
23/12:30pm 19.8 E 11 16 1023.7 - 0.0 - Partly cloudy 10 - - - -
23/12:00pm 18.3 ESE 10 17 1023.9 - 0.0 - Cloudy 10 - - - -
23/11:30am 17.8 ESE 9 15 1024.1 - 0.0 - Partly cloudy 10 - - - -
23/11:00am 17.9 ESE 10 17 1024.2 - 0.0 - Partly cloudy 10 - - - -
23/10:30am 17.5 ESE 8 14 1024.1 - 0.0 - Partly cloudy 10 - - - -
23/10:15am 16.8 ESE 7 10 1024.1 - 0.0 - Partly cloudy 10 - - - -
23/10:00am 15.7 ESE 8 14 1024.3 - 0.0 - Partly cloudy 5 - - - -
23/09:59am 15.8 ESE 8 14 1024.3 - 0.0 - Partly cloudy 5 - - - -
23/09:30am 16.6 SE 6 9 1024.2 - 0.0 - Partly cloudy 10 - - - -
23/09:00am 16.6 ESE 6 10 1024.0 - 0.6 - Cloudy 10 - - - -
23/08:30am 15.0 ESE 6 9 1023.7 - 0.6 - Partly cloudy 10 - - - -
23/08:00am 14.1 E 5 7 1023.5 - 0.6 - - 10 - - - -
23/07:30am 14.1 ESE 6 8 1023.2 - 0.6 - - 10 - - - -
23/07:00am 14.3 ESE 5 7 1023.0 - 0.6 - Partly cloudy 10 - - - -
23/06:30am 14.4 SE 5 7 1022.9 - 0.6 - Partly cloudy 10 - - - -
23/06:00am 14.7 ESE 5 8 1022.9 - 0.6 - Cloudy 10 - - - -
23/05:30am 14.6 SE 6 10 1022.7 - 0.6 - - 10 - - - -
23/05:00am 14.5 SE 5 7 1022.6 - 0.6 - - 10 - - - -
23/04:30am 14.8 E 5 7 1022.7 - 0.6 - Partly cloudy 10 - - - -
23/04:00am 14.3 ENE 5 6 1022.5 - 0.6 - Partly cloudy 10 - - - -
23/03:30am 14.1 ENE 5 5 1022.4 - 0.6 - - 10 - - - -
23/03:00am 14.1 CALM 0 0 1022.4 - 0.6 - Cloudy 10 - - - -
23/02:30am 14.4 SE 4 6 1022.6 - 0.6 - Partly cloudy 10 - - - -
23/02:00am 14.7 SE 4 7 1022.9 - 0.6 - Cloudy 10 - - - -
23/01:30am 15.0 SE 5 7 1022.9 - 0.6 - Partly cloudy 10 - - - -
23/01:00am 15.4 SE 5 8 1023.1 - 0.6 - Partly cloudy 10 - - - -
23/12:30am 15.5 SE 7 11 1023.0 - 0.6 - Partly cloudy 10 - - - -
23/12:00am 14.1 SE 5 8 1022.9 - 0.6 - Partly cloudy 10 - - - -
 
Date/Time
EDT
Temp
°C
Wind Pressure Rain since
9am
mm
Weather Cloud Vis
km
Sea
Height
m
Swell
Dir  Spd
kts
Gust
kts
hPa Trend Height
m
Period
s
Dir
22/11:30pm 14.3 SE 5 6 1022.9 - 0.6 - Partly cloudy 10 - - - -
22/11:00pm 14.8 ESE 5 9 1022.7 - 0.6 - Partly cloudy 10 - - - -
22/10:30pm 15.6 SE 5 10 1022.8 - 0.6 - Cloudy 10 - - - -
22/10:00pm 15.7 SE 6 8 1022.6 - 0.6 - Cloudy 10 - - - -
22/09:30pm 14.6 ESE 6 7 1022.2 - 0.6 - - 10 - - - -
22/09:00pm 14.9 SE 7 13 1021.8 - 0.6 - - 10 - - - -
22/08:30pm 15.3 SE 6 9 1021.7 - 0.6 - - 10 - - - -
22/08:00pm 15.1 SSE 8 13 1021.4 - 0.6 - - 10 - - - -
22/07:30pm 15.5 SE 7 13 1021.1 - 0.6 - - 10 - - - -
22/07:00pm 15.9 SE 9 15 1020.9 - 0.6 - - 10 - - - -
22/06:30pm 16.4 SE 9 15 1020.7 - 0.6 - Partly cloudy 10 - - - -
22/06:00pm 17.1 SE 9 14 1020.5 - 0.6 - - 10 - - - -
22/05:30pm 16.7 SE 10 19 1020.2 - 0.6 - Partly cloudy 10 - - - -
22/05:00pm 17.6 SE 11 18 1020.0 - 0.6 - Partly cloudy 10 - - - -
22/04:30pm 17.7 SE 9 17 1019.5 - 0.6 - Partly cloudy 10 - - - -
22/04:00pm 18.1 SE 9 15 1019.2 - 0.6 - Partly cloudy 10 - - - -
22/03:30pm 17.6 SSE 8 15 1019.0 - 0.6 - Partly cloudy 10 - - - -
22/03:00pm 18.7 SE 10 18 1018.6 - 0.6 - Cloudy 10 - - - -
22/02:30pm 18.0 SE 9 16 1018.5 - 0.6 - Partly cloudy 10 - - - -
22/02:14pm 17.5 SE 9 16 1018.6 - 0.6 - Partly cloudy 10 - - - -
22/02:00pm 16.6 SSE 9 18 1018.8 - 0.6 - Partly cloudy 4 - - - -
22/01:55pm 17.0 SSE 9 16 1018.8 - 0.6 - Partly cloudy 5 - - - -
22/01:38pm 17.3 SE 11 18 1018.6 - 0.6 - Partly cloudy 10 - - - -
22/01:30pm 17.1 SE 10 18 1018.6 - 0.6 - Partly cloudy 9 - - - -
22/01:20pm 17.2 SE 12 22 1018.7 - 0.4 - Partly cloudy 5 - - - -
22/01:00pm 18.5 SE 8 18 1018.3 - 0.4 - Partly cloudy 10 - - - -
22/12:30pm 17.8 SE 11 19 1018.3 - 0.4 - Partly cloudy 10 - - - -
22/12:00pm 17.5 SE 10 17 1018.3 - 0.4 - Cloudy 10 - - - -
22/11:45am 17.1 SE 9 16 1018.3 - 0.4 - Partly cloudy 10 - - - -
22/11:30am 16.9 SE 9 18 1018.2 - 0.4 - Partly cloudy 10 - - - -
22/11:00am 16.8 ESE 10 16 1018.0 - 0.4 - Partly cloudy 10 - - - -
22/10:30am 16.7 ESE 11 19 1017.6 - 0.4 - Partly cloudy 10 - - - -
22/10:00am 16.6 ESE 9 15 1017.4 - 0.4 - Partly cloudy 10 - - - -
22/09:30am 16.3 ESE 10 17 1017.1 - 0.4 - Partly cloudy 10 - - - -
22/09:22am 16.1 SE 9 16 1017.3 - 0.2 - Partly cloudy 10 - - - -
22/09:08am 16.1 SE 8 15 1017.0 - 0.2 - Partly cloudy 9 - - - -
22/09:00am 16.1 SE 9 17 1017.0 - 19.6 Rain Cloudy 9 - - - -
22/08:30am 16.0 SE 7 12 1016.7 - 18.6 - Partly cloudy 7 - - - -
22/08:21am 15.9 SE 7 16 1016.6 - 18.4 - Partly cloudy 7 - - - -
22/08:07am 15.9 SE 7 15 1015.9 - 17.4 - Partly cloudy 7 - - - -
22/08:00am 15.8 ESE 9 18 1015.6 - 17.0 - Partly cloudy 6 - - - -
22/07:30am 15.7 ESE 10 18 1015.6 - 14.0 - Partly cloudy 4 - - - -

Other Formats:

Comma delimited format used in spreadsheet applications
http://www.bom.gov.au/fwo/IDT60701/IDT60701.94980.axf

JavaScript Object Notation format (JSON) in row-major order
http://www.bom.gov.au/fwo/IDT60701/IDT60701.94980.json